createdAt,value
2022-11-02T00:00:55.803Z,66.87
2022-11-02T00:01:55.902Z,66.23
2022-11-02T00:02:55.827Z,68.80
2022-11-02T00:03:55.789Z,68.96
2022-11-02T00:04:55.766Z,65.58
2022-11-02T00:05:55.742Z,63.97
2022-11-02T00:06:55.743Z,68.48
2022-11-02T00:07:55.726Z,74.28
2022-11-02T00:08:55.754Z,64.61
2022-11-02T00:09:55.704Z,67.84
2022-11-02T00:10:55.698Z,67.68
2022-11-02T00:11:55.714Z,68.80
2022-11-02T00:12:55.714Z,66.06
2022-11-02T00:13:55.730Z,67.51
2022-11-02T00:14:55.657Z,69.77
2022-11-02T00:15:55.655Z,67.51
2022-11-02T00:16:55.643Z,68.80
2022-11-02T00:17:55.714Z,67.51
2022-11-02T00:18:55.647Z,68.48
2022-11-02T00:19:55.610Z,66.39
2022-11-02T00:20:55.597Z,68.00
2022-11-02T00:21:55.586Z,65.74
2022-11-02T00:22:55.578Z,67.51
2022-11-02T00:23:55.586Z,67.19
2022-11-02T00:24:55.567Z,68.64
2022-11-02T00:25:55.548Z,65.74
2022-11-02T00:26:55.536Z,66.55
2022-11-02T00:27:55.534Z,65.74
2022-11-02T00:28:55.540Z,67.35
2022-11-02T00:29:55.511Z,65.58
2022-11-02T00:30:55.505Z,64.29
2022-11-02T00:31:55.497Z,65.58
2022-11-02T00:32:55.489Z,64.61
2022-11-02T00:33:55.492Z,63.81
2022-11-02T00:34:55.463Z,65.26
2022-11-02T00:35:55.457Z,69.13
2022-11-02T00:36:55.755Z,64.94
2022-11-02T00:37:56.447Z,67.51
2022-11-02T00:38:55.451Z,67.35
2022-11-02T00:39:55.411Z,66.39
2022-11-02T00:40:55.406Z,66.71
2022-11-02T00:41:55.394Z,64.61
2022-11-02T00:42:55.390Z,66.06
2022-11-02T00:43:55.392Z,65.58
2022-11-02T00:44:55.365Z,66.06
2022-11-02T00:45:55.354Z,66.87
2022-11-02T00:46:55.350Z,67.03
2022-11-02T00:47:55.333Z,64.61
2022-11-02T00:48:55.351Z,64.13
2022-11-02T00:49:55.322Z,63.65
2022-11-02T00:50:55.307Z,65.10
2022-11-02T00:51:55.301Z,66.87
2022-11-02T00:52:55.303Z,63.81
2022-11-02T00:53:55.291Z,68.16
2022-11-02T00:54:55.268Z,64.61
2022-11-02T00:55:55.258Z,66.06
2022-11-02T00:56:55.302Z,64.94
2022-11-02T00:57:55.238Z,65.10
2022-11-02T00:58:55.258Z,66.87
2022-11-02T00:59:55.222Z,70.42
2022-11-02T01:00:55.207Z,62.84
2022-11-02T01:01:55.291Z,63.00
2022-11-02T01:02:55.187Z,68.48
2022-11-02T01:03:55.195Z,63.49
2022-11-02T01:04:55.174Z,67.35
2022-11-02T01:05:55.151Z,65.26
2022-11-02T01:06:55.148Z,64.78
2022-11-02T01:07:55.139Z,62.68
2022-11-02T01:08:55.149Z,68.16
2022-11-02T01:09:55.214Z,65.58
2022-11-02T01:10:55.098Z,64.13
2022-11-02T01:11:55.099Z,66.87
2022-11-02T01:12:55.093Z,70.74
2022-11-02T01:13:55.155Z,64.78
2022-11-02T01:14:55.133Z,63.49
2022-11-02T01:15:55.066Z,65.42
2022-11-02T01:16:55.056Z,68.48
2022-11-02T01:17:55.098Z,62.84
2022-11-02T01:18:55.053Z,63.33
2022-11-02T01:19:55.027Z,64.78
2022-11-02T01:20:55.022Z,67.03
2022-11-02T01:21:55.003Z,68.64
2022-11-02T01:22:54.990Z,66.71
2022-11-02T01:23:55.010Z,66.23
2022-11-02T01:24:54.985Z,67.51
2022-11-02T01:25:54.958Z,66.39
2022-11-02T01:26:54.954Z,62.52
2022-11-02T01:27:54.952Z,66.23
2022-11-02T01:28:54.958Z,64.94
2022-11-02T01:29:54.930Z,62.68
2022-11-02T01:30:54.918Z,65.42
2022-11-02T01:31:54.913Z,65.42
2022-11-02T01:32:54.908Z,63.00
2022-11-02T01:33:54.899Z,66.71
2022-11-02T01:34:54.884Z,66.87
2022-11-02T01:35:54.875Z,63.65
2022-11-02T01:36:54.865Z,68.64
2022-11-02T01:37:54.855Z,63.49
2022-11-02T01:38:54.906Z,63.33
2022-11-02T01:39:54.830Z,65.42
2022-11-02T01:40:54.820Z,63.81
2022-11-02T01:41:54.809Z,61.07
2022-11-02T01:42:54.797Z,67.03
2022-11-02T01:43:54.814Z,65.42
2022-11-02T01:44:54.784Z,63.65
2022-11-02T01:45:54.766Z,63.33
2022-11-02T01:46:54.766Z,62.04
2022-11-02T01:47:54.752Z,62.84
2022-11-02T01:48:54.760Z,66.87
2022-11-02T01:49:54.722Z,65.10
2022-11-02T01:50:54.725Z,67.03
2022-11-02T01:51:54.720Z,64.61
2022-11-02T01:52:54.703Z,63.33
2022-11-02T01:53:54.732Z,66.23
2022-11-02T01:54:54.692Z,65.42
2022-11-02T01:55:54.684Z,63.81
2022-11-02T01:56:54.667Z,65.26
2022-11-02T01:57:54.653Z,61.55
2022-11-02T01:58:54.661Z,63.97
2022-11-02T01:59:54.639Z,66.87
2022-11-02T02:00:54.625Z,63.49
2022-11-02T02:01:54.805Z,63.97
2022-11-02T02:02:54.659Z,66.71
2022-11-02T02:03:54.616Z,63.49
2022-11-02T02:04:54.592Z,66.39
2022-11-02T02:05:54.586Z,67.35
2022-11-02T02:06:54.574Z,63.97
2022-11-02T02:07:54.557Z,66.06
2022-11-02T02:08:54.561Z,65.42
2022-11-02T02:09:54.543Z,65.74
2022-11-02T02:10:54.531Z,65.90
2022-11-02T02:11:54.523Z,66.55
2022-11-02T02:12:54.502Z,68.00
2022-11-02T02:13:54.526Z,67.19
2022-11-02T02:14:54.489Z,68.00
2022-11-02T02:15:54.489Z,67.03
2022-11-02T02:16:54.480Z,66.06
2022-11-02T02:17:54.458Z,63.81
2022-11-02T02:18:54.479Z,67.84
2022-11-02T02:19:54.445Z,65.10
2022-11-02T02:20:55.430Z,64.61
2022-11-02T02:21:54.426Z,66.55
2022-11-02T02:22:54.418Z,65.58
2022-11-02T02:23:54.427Z,65.26
2022-11-02T02:24:54.383Z,65.58
2022-11-02T02:25:54.387Z,68.32
2022-11-02T02:26:54.383Z,68.48
2022-11-02T02:27:54.364Z,63.49
2022-11-02T02:28:54.381Z,66.71
2022-11-02T02:29:54.345Z,67.51
2022-11-02T02:30:54.341Z,66.55
2022-11-02T02:31:54.327Z,67.35
2022-11-02T02:32:54.322Z,66.55
2022-11-02T02:33:54.332Z,62.20
2022-11-02T02:34:54.296Z,68.80
2022-11-02T02:35:54.284Z,66.87
2022-11-02T02:36:54.279Z,67.84
2022-11-02T02:37:54.262Z,67.84
2022-11-02T02:38:54.275Z,67.19
2022-11-02T02:39:54.252Z,69.61
2022-11-02T02:40:54.242Z,63.00
2022-11-02T02:41:54.231Z,66.71
2022-11-02T02:42:54.222Z,66.87
2022-11-02T02:43:54.236Z,66.23
2022-11-02T02:44:54.190Z,66.39
2022-11-02T02:45:54.184Z,65.42
2022-11-02T02:46:56.246Z,67.35
2022-11-02T02:47:55.181Z,67.35
2022-11-02T02:48:54.180Z,63.49
2022-11-02T02:49:54.150Z,66.39
2022-11-02T02:50:54.135Z,66.39
2022-11-02T02:51:54.131Z,66.87
2022-11-02T02:52:54.113Z,68.16
2022-11-02T02:53:54.139Z,67.68
2022-11-02T02:54:54.103Z,66.06
2022-11-02T02:55:54.089Z,65.74
2022-11-02T02:56:54.084Z,68.64
2022-11-02T02:57:54.075Z,68.64
2022-11-02T02:58:54.078Z,67.03
2022-11-02T02:59:54.060Z,66.06
2022-11-02T03:00:54.050Z,69.29
2022-11-02T03:01:54.093Z,66.87
2022-11-02T03:02:54.027Z,67.19
2022-11-02T03:03:54.039Z,67.19
2022-11-02T03:04:54.004Z,68.32
2022-11-02T03:05:53.989Z,68.32
2022-11-02T03:06:53.981Z,66.71
2022-11-02T03:07:53.978Z,70.42
2022-11-02T03:08:53.988Z,67.84
2022-11-02T03:09:53.961Z,66.39
2022-11-02T03:10:53.957Z,68.48
2022-11-02T03:11:53.940Z,66.71
2022-11-02T03:12:53.919Z,66.55
2022-11-02T03:13:53.936Z,70.25
2022-11-02T03:14:53.912Z,69.13
2022-11-02T03:15:53.902Z,66.39
2022-11-02T03:16:53.911Z,67.35
2022-11-02T03:17:53.876Z,65.90
2022-11-02T03:18:53.896Z,66.71
2022-11-02T03:19:53.860Z,68.64
2022-11-02T03:20:53.868Z,68.32
2022-11-02T03:21:53.834Z,68.48
2022-11-02T03:22:53.829Z,67.68
2022-11-02T03:23:53.839Z,67.84
2022-11-02T03:24:53.802Z,68.64
2022-11-02T03:25:53.799Z,68.48
2022-11-02T03:26:53.788Z,71.06
2022-11-02T03:27:53.776Z,66.55
2022-11-02T03:28:54.789Z,68.64
2022-11-02T03:29:53.762Z,67.35
2022-11-02T03:30:53.748Z,67.35
2022-11-02T03:31:53.743Z,66.87
2022-11-02T03:32:53.728Z,67.35
2022-11-02T03:33:53.734Z,68.00
2022-11-02T03:34:53.712Z,68.16
2022-11-02T03:35:53.702Z,69.45
2022-11-02T03:36:53.688Z,66.39
2022-11-02T03:37:53.690Z,68.80
2022-11-02T03:38:53.695Z,67.19
2022-11-02T03:39:53.664Z,66.39
2022-11-02T03:40:53.655Z,68.00
2022-11-02T03:41:53.643Z,68.48
2022-11-02T03:42:53.629Z,66.87
2022-11-02T03:43:53.638Z,65.26
2022-11-02T03:44:53.606Z,67.84
2022-11-02T03:45:53.593Z,68.48
2022-11-02T03:46:53.586Z,70.58
2022-11-02T03:47:53.593Z,66.23
2022-11-02T03:48:53.586Z,68.00
2022-11-02T03:49:53.560Z,67.84
2022-11-02T03:50:53.548Z,66.39
2022-11-02T03:51:53.590Z,68.80
2022-11-02T03:52:53.522Z,66.87
2022-11-02T03:53:53.525Z,66.39
2022-11-02T03:54:53.506Z,67.19
2022-11-02T03:55:53.499Z,68.48
2022-11-02T03:56:53.552Z,67.84
2022-11-02T03:57:53.477Z,68.64
2022-11-02T03:58:53.477Z,66.87
2022-11-02T03:59:53.460Z,65.74
2022-11-02T04:00:53.449Z,67.51
2022-11-02T04:01:53.515Z,65.90
2022-11-02T04:02:53.500Z,67.03
2022-11-02T04:03:53.430Z,67.84
2022-11-02T04:04:53.413Z,65.58
2022-11-02T04:05:53.397Z,67.35
2022-11-02T04:06:53.385Z,66.55
2022-11-02T04:07:56.858Z,68.80
2022-11-02T04:08:55.393Z,67.19
2022-11-02T04:09:53.355Z,67.84
2022-11-02T04:10:53.354Z,67.35
2022-11-02T04:11:53.344Z,66.23
2022-11-02T04:12:53.333Z,66.71
2022-11-02T04:13:53.339Z,66.87
2022-11-02T04:14:53.319Z,66.71
2022-11-02T04:15:53.306Z,68.64
2022-11-02T04:16:53.294Z,69.13
2022-11-02T04:17:53.288Z,67.68
2022-11-02T04:18:53.296Z,66.87
2022-11-02T04:19:53.275Z,67.84
2022-11-02T04:20:53.255Z,66.23
2022-11-02T04:21:53.246Z,66.55
2022-11-02T04:22:53.238Z,68.32
2022-11-02T04:23:53.242Z,67.68
2022-11-02T04:24:53.223Z,68.80
2022-11-02T04:25:53.199Z,68.64
2022-11-02T04:26:53.200Z,67.84
2022-11-02T04:27:53.197Z,68.00
2022-11-02T04:28:53.203Z,68.32
2022-11-02T04:29:53.167Z,68.00
2022-11-02T04:30:53.163Z,66.55
2022-11-02T04:31:53.151Z,68.00
2022-11-02T04:32:53.141Z,67.35
2022-11-02T04:33:53.142Z,68.16
2022-11-02T04:34:53.131Z,68.00
2022-11-02T04:35:53.118Z,66.23
2022-11-02T04:36:53.106Z,68.00
2022-11-02T04:37:53.082Z,67.68
2022-11-02T04:38:53.103Z,67.35
2022-11-02T04:39:53.070Z,66.87
2022-11-02T04:40:53.065Z,68.00
2022-11-02T04:41:53.043Z,65.90
2022-11-02T04:42:53.045Z,67.51
2022-11-02T04:43:53.056Z,68.00
2022-11-02T04:44:53.030Z,68.00
2022-11-02T04:45:53.004Z,67.84
2022-11-02T04:46:53.002Z,66.87
2022-11-02T04:47:52.996Z,67.84
2022-11-02T04:48:54.012Z,69.77
2022-11-02T04:49:52.979Z,67.51
2022-11-02T04:50:52.965Z,68.96
2022-11-02T04:51:52.963Z,67.84
2022-11-02T04:52:52.951Z,67.19
2022-11-02T04:53:52.958Z,67.84
2022-11-02T04:54:52.932Z,67.51
2022-11-02T04:55:52.921Z,67.35
2022-11-02T04:56:52.912Z,67.51
2022-11-02T04:57:52.892Z,67.51
2022-11-02T04:58:52.911Z,67.68
2022-11-02T04:59:52.889Z,67.68
2022-11-02T05:00:52.941Z,68.00
2022-11-02T05:01:53.009Z,68.80
2022-11-02T05:03:24.756Z,69.13
2022-11-02T05:03:52.874Z,67.84
2022-11-02T05:04:52.825Z,69.13
2022-11-02T05:05:52.827Z,68.48
2022-11-02T05:06:54.527Z,69.45
2022-11-02T05:07:52.793Z,68.32
2022-11-02T05:08:53.817Z,69.93
2022-11-02T05:09:52.785Z,69.13
2022-11-02T05:10:52.781Z,69.93
2022-11-02T05:11:52.764Z,68.00
2022-11-02T05:12:52.755Z,71.22
2022-11-02T05:13:52.763Z,69.93
2022-11-02T05:14:52.738Z,69.45
2022-11-02T05:15:52.733Z,68.96
2022-11-02T05:16:52.713Z,69.45
2022-11-02T05:17:52.758Z,69.45
2022-11-02T05:18:52.712Z,69.29
2022-11-02T05:19:52.690Z,67.84
2022-11-02T05:20:52.670Z,71.38
2022-11-02T05:21:52.669Z,71.22
2022-11-02T05:22:52.650Z,69.61
2022-11-02T05:23:52.664Z,69.29
2022-11-02T05:24:52.622Z,71.54
2022-11-02T05:25:52.618Z,70.90
2022-11-02T05:26:54.034Z,72.03
2022-11-02T05:27:53.605Z,72.19
2022-11-02T05:28:52.614Z,70.42
2022-11-02T05:29:52.588Z,71.22
2022-11-02T05:30:52.566Z,70.58
2022-11-02T05:31:52.571Z,69.61
2022-11-02T05:32:52.547Z,70.42
2022-11-02T05:33:52.567Z,71.22
2022-11-02T05:34:52.555Z,69.29
2022-11-02T05:35:52.529Z,70.74
2022-11-02T05:36:52.503Z,70.09
2022-11-02T05:37:52.503Z,69.93
2022-11-02T05:38:52.514Z,71.54
2022-11-02T05:39:52.485Z,69.77
2022-11-02T05:40:52.466Z,70.58
2022-11-02T05:41:52.468Z,71.54
2022-11-02T05:42:52.458Z,71.54
2022-11-02T05:43:52.470Z,70.58
2022-11-02T05:44:52.426Z,70.42
2022-11-02T05:45:52.431Z,69.93
2022-11-02T05:46:52.410Z,70.42
2022-11-02T05:47:52.417Z,70.25
2022-11-02T05:48:52.423Z,72.67
2022-11-02T05:49:52.385Z,70.42
2022-11-02T05:50:52.376Z,71.22
2022-11-02T05:51:52.364Z,69.93
2022-11-02T05:52:52.352Z,70.09
2022-11-02T05:53:52.364Z,69.77
2022-11-02T05:54:52.337Z,70.90
2022-11-02T05:55:52.329Z,69.93
2022-11-02T05:56:52.305Z,70.42
2022-11-02T05:57:52.311Z,70.42
2022-11-02T05:59:53.283Z,70.58
2022-11-02T06:00:52.263Z,70.90
2022-11-02T06:01:52.379Z,71.38
2022-11-02T06:02:52.260Z,70.42
2022-11-02T06:03:53.918Z,71.38
2022-11-02T06:04:53.270Z,70.74
2022-11-02T06:05:52.222Z,71.38
2022-11-02T06:06:52.213Z,70.25
2022-11-02T06:07:52.206Z,68.96
2022-11-02T06:08:52.212Z,69.93
2022-11-02T06:09:52.201Z,69.13
2022-11-02T06:10:52.186Z,70.42
2022-11-02T06:11:52.168Z,70.74
2022-11-02T06:12:52.151Z,70.25
2022-11-02T06:13:52.193Z,69.29
2022-11-02T06:14:52.143Z,70.58
2022-11-02T06:15:52.127Z,69.93
2022-11-02T06:16:52.119Z,69.93
2022-11-02T06:17:52.109Z,70.42
2022-11-02T06:18:52.120Z,71.06
2022-11-02T06:19:52.093Z,71.70
2022-11-02T06:20:52.083Z,70.90
2022-11-02T06:21:52.072Z,70.09
2022-11-02T06:22:52.059Z,69.61
2022-11-02T06:23:52.075Z,70.42
2022-11-02T06:24:52.042Z,69.13
2022-11-02T06:25:52.026Z,70.09
2022-11-02T06:26:52.154Z,71.06
2022-11-02T06:27:52.007Z,71.06
2022-11-02T06:28:52.019Z,71.06
2022-11-02T06:29:52.020Z,70.42
2022-11-02T06:30:51.981Z,70.58
2022-11-02T06:31:51.966Z,70.09
2022-11-02T06:32:51.951Z,70.42
2022-11-02T06:33:51.983Z,70.74
2022-11-02T06:34:51.943Z,68.96
2022-11-02T06:35:51.929Z,70.58
2022-11-02T06:36:51.915Z,70.42
2022-11-02T06:37:51.912Z,70.09
2022-11-02T06:38:51.926Z,70.58
2022-11-02T06:39:51.894Z,70.74
2022-11-02T06:40:51.878Z,70.25
2022-11-02T06:41:51.875Z,69.61
2022-11-02T06:43:10.914Z,71.06
2022-11-02T06:43:53.870Z,70.09
2022-11-02T06:44:51.826Z,69.61
2022-11-02T06:45:51.835Z,70.90
2022-11-02T06:46:51.822Z,69.93
2022-11-02T06:47:51.815Z,69.61
2022-11-02T06:48:51.808Z,70.74
2022-11-02T06:49:51.796Z,68.96
2022-11-02T06:50:51.789Z,69.93
2022-11-02T06:51:51.775Z,69.93
2022-11-02T06:52:51.766Z,69.29
2022-11-02T06:53:51.815Z,71.87
2022-11-02T06:54:51.748Z,69.77
2022-11-02T06:55:51.732Z,69.61
2022-11-02T06:56:51.716Z,69.93
2022-11-02T06:57:51.721Z,69.77
2022-11-02T06:58:51.794Z,70.74
2022-11-02T06:59:54.061Z,69.45
2022-11-02T07:00:52.734Z,69.13
2022-11-02T07:01:51.728Z,69.45
2022-11-02T07:02:51.672Z,69.29
2022-11-02T07:03:51.771Z,69.45
2022-11-02T07:04:51.650Z,69.93
2022-11-02T07:05:51.637Z,69.13
2022-11-02T07:06:51.644Z,68.64
2022-11-02T07:07:51.623Z,69.45
2022-11-02T07:08:51.627Z,70.42
2022-11-02T07:09:51.597Z,69.29
2022-11-02T07:10:51.583Z,69.29
2022-11-02T07:11:51.574Z,69.45
2022-11-02T07:12:51.556Z,70.74
2022-11-02T07:13:51.581Z,68.16
2022-11-02T07:14:51.553Z,68.96
2022-11-02T07:15:51.541Z,68.48
2022-11-02T07:16:51.599Z,68.80
2022-11-02T07:17:51.526Z,68.32
2022-11-02T07:18:51.532Z,68.64
2022-11-02T07:19:51.504Z,68.48
2022-11-02T07:20:51.479Z,68.64
2022-11-02T07:21:51.486Z,70.09
2022-11-02T07:22:51.482Z,68.96
2022-11-02T07:23:51.484Z,68.96
2022-11-02T07:24:51.456Z,67.68
2022-11-02T07:25:51.445Z,68.48
2022-11-02T07:26:51.436Z,68.80
2022-11-02T07:27:51.425Z,68.96
2022-11-02T07:28:56.687Z,68.96
2022-11-02T07:29:52.406Z,69.29
2022-11-02T07:30:51.397Z,68.96
2022-11-02T07:31:51.391Z,68.48
2022-11-02T07:32:51.368Z,68.80
2022-11-02T07:33:51.386Z,69.45
2022-11-02T07:34:51.355Z,70.74
2022-11-02T07:35:51.353Z,68.16
2022-11-02T07:36:51.326Z,68.96
2022-11-02T07:37:51.327Z,69.93
2022-11-02T07:38:51.329Z,70.25
2022-11-02T07:39:51.303Z,69.45
2022-11-02T07:40:51.286Z,68.64
2022-11-02T07:41:52.135Z,68.80
2022-11-02T07:42:52.279Z,69.77
2022-11-02T07:43:51.305Z,68.96
2022-11-02T07:44:51.259Z,69.93
2022-11-02T07:45:51.244Z,69.61
2022-11-02T07:46:51.298Z,69.93
2022-11-02T07:47:51.238Z,70.09
2022-11-02T07:48:51.244Z,68.96
2022-11-02T07:49:51.217Z,67.51
2022-11-02T07:50:51.208Z,68.00
2022-11-02T07:51:51.195Z,68.48
2022-11-02T07:52:51.183Z,67.84
2022-11-02T07:53:51.204Z,68.64
2022-11-02T07:54:51.186Z,69.45
2022-11-02T07:55:51.157Z,68.80
2022-11-02T07:56:51.138Z,68.48
2022-11-02T07:57:51.120Z,69.93
2022-11-02T07:58:51.143Z,68.96
2022-11-02T07:59:51.114Z,68.64
2022-11-02T08:00:53.789Z,69.93
2022-11-02T08:01:51.182Z,69.13
2022-11-02T08:02:51.132Z,68.96
2022-11-02T08:03:51.096Z,67.51
2022-11-02T08:04:51.067Z,70.90
2022-11-02T08:05:51.055Z,69.45
2022-11-02T08:06:51.039Z,67.51
2022-11-02T08:07:51.040Z,70.09
2022-11-02T08:08:51.053Z,66.06
2022-11-02T08:09:51.025Z,68.00
2022-11-02T08:10:51.008Z,68.48
2022-11-02T08:11:51.007Z,68.16
2022-11-02T08:12:50.989Z,68.80
2022-11-02T08:13:50.996Z,68.16
2022-11-02T08:14:50.972Z,69.13
2022-11-02T08:15:50.972Z,67.51
2022-11-02T08:16:50.964Z,70.42
2022-11-02T08:17:50.933Z,66.87
2022-11-02T08:18:50.929Z,68.16
2022-11-02T08:19:50.910Z,68.00
2022-11-02T08:20:50.884Z,67.68
2022-11-02T08:21:50.885Z,67.51
2022-11-02T08:22:50.875Z,68.00
2022-11-02T08:23:53.603Z,67.84
2022-11-02T08:24:51.860Z,68.96
2022-11-02T08:25:50.857Z,68.16
2022-11-02T08:26:53.914Z,66.55
2022-11-02T08:27:51.828Z,67.84
2022-11-02T08:28:50.855Z,67.35
2022-11-02T08:29:50.811Z,70.25
2022-11-02T08:30:50.800Z,69.45
2022-11-02T08:31:50.789Z,69.45
2022-11-02T08:32:56.332Z,66.71
2022-11-02T08:33:51.786Z,68.48
2022-11-02T08:34:50.759Z,70.25
2022-11-02T08:35:50.758Z,69.13
2022-11-02T08:36:50.737Z,67.03
2022-11-02T08:37:50.738Z,68.64
2022-11-02T08:38:50.746Z,67.51
2022-11-02T08:39:50.725Z,68.96
2022-11-02T08:40:50.711Z,67.03
2022-11-02T08:41:50.723Z,66.55
2022-11-02T08:42:50.688Z,67.68
2022-11-02T08:43:50.701Z,68.00
2022-11-02T08:44:50.665Z,67.84
2022-11-02T08:47:50.647Z,68.16
2022-11-02T08:48:50.643Z,68.48
2022-11-02T08:49:50.619Z,67.03
2022-11-02T08:50:50.622Z,69.77
2022-11-02T08:51:50.602Z,70.58
2022-11-02T08:52:50.598Z,69.29
2022-11-02T08:53:52.014Z,69.77
2022-11-02T08:54:51.572Z,67.84
2022-11-02T08:55:50.560Z,68.16
2022-11-02T08:56:50.554Z,66.39
2022-11-02T08:57:50.544Z,67.03
2022-11-02T08:58:50.551Z,68.80
2022-11-02T08:59:50.523Z,67.68
2022-11-02T09:00:50.500Z,67.35
2022-11-02T09:01:50.598Z,68.16
2022-11-02T09:02:50.614Z,68.00
2022-11-02T09:03:50.506Z,67.03
2022-11-02T09:04:50.471Z,67.35
2022-11-02T09:05:50.461Z,68.96
2022-11-02T09:06:50.449Z,69.93
2022-11-02T09:07:50.441Z,69.61
2022-11-02T09:08:52.764Z,68.80
2022-11-02T09:09:51.411Z,68.96
2022-11-02T09:10:50.405Z,71.54
2022-11-02T09:11:50.398Z,69.77
2022-11-02T09:12:50.387Z,68.96
2022-11-02T09:13:55.675Z,68.96
2022-11-02T09:14:52.369Z,69.45
2022-11-02T09:15:50.362Z,68.16
2022-11-02T09:16:50.345Z,67.51
2022-11-02T09:17:50.343Z,67.19
2022-11-02T09:18:50.348Z,67.19
2022-11-02T09:19:50.331Z,67.19
2022-11-02T09:20:50.297Z,68.64
2022-11-02T09:21:50.308Z,67.51
2022-11-02T09:22:50.290Z,66.71
2022-11-02T09:23:50.296Z,68.00
2022-11-02T09:24:50.264Z,76.70
2022-11-02T09:25:50.268Z,70.74
2022-11-02T09:26:50.261Z,68.64
2022-11-02T09:27:55.167Z,68.16
2022-11-02T09:28:51.239Z,68.64
2022-11-02T09:29:50.227Z,69.77
2022-11-02T09:30:50.208Z,68.80
2022-11-02T09:31:50.203Z,66.71
2022-11-02T09:32:50.180Z,68.16
2022-11-02T09:33:50.199Z,67.51
2022-11-02T09:34:50.158Z,66.87
2022-11-02T09:35:50.153Z,66.71
2022-11-02T09:36:50.127Z,67.51
2022-11-02T09:37:51.163Z,67.51
2022-11-02T09:38:50.153Z,66.87
2022-11-02T09:39:50.114Z,68.00
2022-11-02T09:40:50.093Z,67.84
2022-11-02T09:41:50.092Z,67.35
2022-11-02T09:42:50.090Z,67.84
2022-11-02T09:43:50.085Z,69.77
2022-11-02T09:44:50.064Z,67.84
2022-11-02T09:45:51.064Z,66.87
2022-11-02T09:47:09.413Z,69.13
2022-11-02T09:48:52.050Z,68.32
2022-11-02T09:49:50.021Z,70.09
2022-11-02T09:50:50.014Z,68.64
2022-11-02T09:51:49.999Z,68.96
2022-11-02T09:52:49.980Z,70.90
2022-11-02T09:53:49.988Z,69.13
2022-11-02T09:54:49.969Z,70.09
2022-11-02T09:55:49.962Z,67.51
2022-11-02T09:56:49.930Z,68.00
2022-11-02T09:57:49.941Z,68.16
2022-11-02T09:58:49.954Z,68.48
2022-11-02T09:59:49.913Z,68.00
2022-11-02T10:00:49.924Z,68.16
2022-11-02T10:01:49.931Z,68.16
2022-11-02T10:02:49.911Z,68.00
2022-11-02T10:03:49.894Z,67.19
2022-11-02T10:04:49.846Z,67.68
2022-11-02T10:05:49.855Z,69.13
2022-11-02T10:06:49.839Z,67.51
2022-11-02T10:07:49.852Z,69.13
2022-11-02T10:08:49.885Z,68.00
2022-11-02T10:09:49.818Z,68.16
2022-11-02T10:10:49.808Z,67.19
2022-11-02T10:11:49.796Z,66.87
2022-11-02T10:12:49.795Z,67.68
2022-11-02T10:13:52.544Z,68.32
2022-11-02T10:14:50.768Z,67.35
2022-11-02T10:15:49.757Z,67.35
2022-11-02T10:16:49.737Z,67.84
2022-11-02T10:17:49.741Z,69.77
2022-11-02T10:18:49.750Z,70.25
2022-11-02T10:19:49.715Z,68.64
2022-11-02T10:20:49.696Z,67.51
2022-11-02T10:21:49.694Z,69.13
2022-11-02T10:22:49.692Z,68.64
2022-11-02T10:23:49.696Z,67.68
2022-11-02T10:24:49.659Z,76.22
2022-11-02T10:25:49.653Z,75.73
2022-11-02T10:26:49.635Z,76.22
2022-11-02T10:27:49.700Z,67.03
2022-11-02T10:28:49.655Z,67.19
2022-11-02T10:29:49.616Z,67.51
2022-11-02T10:30:49.609Z,67.19
2022-11-02T10:31:49.599Z,67.84
2022-11-02T10:32:49.575Z,68.64
2022-11-02T10:33:52.806Z,67.03
2022-11-02T10:34:58.518Z,67.35
2022-11-02T10:36:12.497Z,72.35
2022-11-02T10:36:51.741Z,72.83
2022-11-02T10:37:49.538Z,72.03
2022-11-02T10:38:49.547Z,70.74
2022-11-02T10:39:49.518Z,72.03
2022-11-02T10:40:49.503Z,72.03
2022-11-02T10:41:49.497Z,71.38
2022-11-02T10:42:49.489Z,70.09
2022-11-02T10:43:52.134Z,69.29
2022-11-02T10:44:50.463Z,69.45
2022-11-02T10:45:49.457Z,69.93
2022-11-02T10:46:49.446Z,73.48
2022-11-02T10:47:49.446Z,72.03
2022-11-02T10:48:49.436Z,71.54
2022-11-02T10:49:49.419Z,72.51
2022-11-02T10:50:49.409Z,70.74
2022-11-02T10:51:49.394Z,71.06
2022-11-02T10:52:49.411Z,70.58
2022-11-02T10:53:50.104Z,72.51
2022-11-02T10:54:49.368Z,70.42
2022-11-02T10:55:49.352Z,71.22
2022-11-02T10:56:49.343Z,70.25
2022-11-02T10:57:49.336Z,68.64
2022-11-02T10:58:49.344Z,70.25
2022-11-02T10:59:53.401Z,69.45
2022-11-02T11:00:49.337Z,70.90
2022-11-02T11:01:49.323Z,70.42
2022-11-02T11:02:49.278Z,69.45
2022-11-02T11:03:50.297Z,70.25
2022-11-02T11:04:49.265Z,71.70
2022-11-02T11:05:49.253Z,70.74
2022-11-02T11:06:49.239Z,69.93
2022-11-02T11:08:21.638Z,69.93
2022-11-02T11:08:49.243Z,67.35
2022-11-02T11:09:49.215Z,69.45
2022-11-02T11:10:49.203Z,71.70
2022-11-02T11:11:49.192Z,69.77
2022-11-02T11:12:49.181Z,69.93
2022-11-02T11:15:51.153Z,71.06
2022-11-02T11:16:50.059Z,71.22
2022-11-02T11:19:51.118Z,71.38
2022-11-02T11:20:49.104Z,71.54
2022-11-02T11:21:49.100Z,71.06
2022-11-02T11:22:49.082Z,70.25
2022-11-02T11:23:49.100Z,72.51
2022-11-02T11:24:49.062Z,71.38
2022-11-02T11:25:49.053Z,70.09
2022-11-02T11:26:49.034Z,69.93
2022-11-02T11:27:49.039Z,70.25
2022-11-02T11:28:49.032Z,70.74
2022-11-02T11:29:49.006Z,73.15
2022-11-02T11:30:59.841Z,71.54
2022-11-02T11:31:50.995Z,71.22
2022-11-02T11:32:49.005Z,71.06
2022-11-02T11:33:48.991Z,70.74
2022-11-02T11:34:48.964Z,68.48
2022-11-02T11:35:48.958Z,72.99
2022-11-02T11:36:48.934Z,71.22
2022-11-02T11:37:48.930Z,70.25
2022-11-02T11:38:48.928Z,70.90
2022-11-02T11:39:52.447Z,70.25
2022-11-02T11:40:50.895Z,71.06
2022-11-02T11:41:48.889Z,69.61
2022-11-02T11:42:48.880Z,70.90
2022-11-02T11:43:48.881Z,70.09
2022-11-02T11:44:48.859Z,68.16
2022-11-02T11:45:48.867Z,68.48
2022-11-02T11:46:48.851Z,68.96
2022-11-02T11:47:48.836Z,68.48
2022-11-02T11:48:48.841Z,67.19
2022-11-02T11:50:08.112Z,68.80
2022-11-02T11:50:50.807Z,69.61
2022-11-02T11:51:48.801Z,68.96
2022-11-02T11:52:48.790Z,67.84
2022-11-02T11:53:48.796Z,68.80
2022-11-02T11:54:48.759Z,69.45
2022-11-02T11:55:48.764Z,70.90
2022-11-02T11:56:48.779Z,69.93
2022-11-02T11:57:48.745Z,68.96
2022-11-02T11:58:50.484Z,69.13
2022-11-02T11:59:48.721Z,68.16
2022-11-02T12:00:48.706Z,69.13
2022-11-02T12:01:48.882Z,67.68
2022-11-02T12:02:48.754Z,67.68
2022-11-02T12:03:48.695Z,67.51
2022-11-02T12:04:48.666Z,68.48
2022-11-02T12:05:48.666Z,68.80
2022-11-02T12:06:48.655Z,68.16
2022-11-02T12:07:53.405Z,69.45
2022-11-02T12:08:49.742Z,70.25
2022-11-02T12:09:48.624Z,68.64
2022-11-02T12:10:48.630Z,67.84
2022-11-02T12:11:48.606Z,68.00
2022-11-02T12:12:48.592Z,69.13
2022-11-02T12:13:48.588Z,71.70
2022-11-02T12:14:48.592Z,70.25
2022-11-02T12:15:48.565Z,72.99
2022-11-02T12:16:48.554Z,67.51
2022-11-02T12:17:48.543Z,68.16
2022-11-02T12:18:48.563Z,68.48
2022-11-02T12:19:48.537Z,67.68
2022-11-02T12:20:48.513Z,68.32
2022-11-02T12:21:48.506Z,68.96
2022-11-02T12:22:48.493Z,68.80
2022-11-02T12:23:48.473Z,69.77
2022-11-02T12:24:48.529Z,69.61
2022-11-02T12:25:48.464Z,70.42
2022-11-02T12:26:48.451Z,68.48
2022-11-02T12:27:48.451Z,67.68
2022-11-02T12:28:48.432Z,67.19
2022-11-02T12:29:48.444Z,68.48
2022-11-02T12:30:48.406Z,69.29
2022-11-02T12:31:48.406Z,69.61
2022-11-02T12:32:48.399Z,68.48
2022-11-02T12:33:48.385Z,69.93
2022-11-02T12:34:53.317Z,70.09
2022-11-02T12:35:50.363Z,70.09
2022-11-02T12:37:18.712Z,69.45
2022-11-02T12:37:50.353Z,68.64
2022-11-02T12:38:48.343Z,67.68
2022-11-02T12:39:48.346Z,68.32
2022-11-02T12:40:48.321Z,69.13
2022-11-02T12:41:48.311Z,68.32
2022-11-02T12:42:48.300Z,66.06
2022-11-02T12:43:48.285Z,67.19
2022-11-02T12:44:48.300Z,68.32
2022-11-02T12:45:48.277Z,67.84
2022-11-02T12:46:49.301Z,67.68
2022-11-02T12:47:49.258Z,67.51
2022-11-02T12:48:48.243Z,67.35
2022-11-02T12:49:48.253Z,68.16
2022-11-02T12:50:49.224Z,67.35
2022-11-02T12:51:48.217Z,68.16
2022-11-02T12:52:48.196Z,68.32
2022-11-02T12:53:48.196Z,69.93
2022-11-02T12:54:48.205Z,66.39
2022-11-02T12:55:48.183Z,68.16
2022-11-02T12:56:48.150Z,67.03
2022-11-02T12:57:49.155Z,68.32
2022-11-02T12:58:48.144Z,67.51
2022-11-02T12:59:48.165Z,68.00
2022-11-02T13:00:48.165Z,66.23